< < Back
Terminal Aerodrome Forecast


Current Version              Previous Versions:   1  2  3  4  5  6  7  8  9  

Terminal Aerodrome Forecast

245
FTUS42 KGSP 291127
TAFCLT
TAF
KCLT 291127Z 2912/3012 35007KT 5SM -SHRA BR SCT025 OVC040
     FM291400 36010G16KT P6SM SHRA OVC025
     FM291800 36012G18KT P6SM -SHRA OVC035
     FM300100 01008KT P6SM VCSH OVC035 PROB30 3001/3006 -SHRA OVC025
     FM300800 36006KT P6SM BKN020=

Latest METAR

973
SAUS70 KWBC 292300 RRE
MTRCLT
METAR KCLT 292252Z 02012G16KT 10SM SCT043 BKN065 BKN220 23/16 A3004 RMK
AO2 SLP165 T02330156


USA.gov is the U.S. government's official web portal to all federal, state and local government web resources and services.